Beaver, Wisconsin
Current Conditions -  °F | °C
As of 10:35 PM on Saturday 22 Nov 2014 (Local Time) from KMNM Reporting Station
Overcast Overcast  
Wind Chill: 37°   Ceiling: 300
Heat Index: 37°   Visibility: 1.2mi
Dew Point: 36°   Wind: 3mph
Humidity: 93%   Direction: 180°S
Pressure: 29.74"   Gusts: NA
Location:  45.272°N, 88.1562°W
Report Text: KMNM 230435Z AUTO 18003KT 1 1/4SM OVC003 03/02 A2974 RMK AO1
Loading
Personal Weather Stations






























Interactive Weather Map New forecast layout! Learn more

10-Day Weather Forecast

Advertisements
Track Severe Weather on mobile